sensor_id;sensor_type;location;lat;lon;timestamp;P1;durP1;ratioP1;P2;durP2;ratioP2
84644;SDS011;74874;48.072;11.688;2024-01-07T00:01:13;36.78;;;15.50;;
84644;SDS011;74874;48.072;11.688;2024-01-07T00:03:42;38.30;;;15.55;;
84644;SDS011;74874;48.072;11.688;2024-01-07T00:06:07;37.28;;;14.77;;
84644;SDS011;74874;48.072;11.688;2024-01-07T00:08:33;36.67;;;15.70;;
84644;SDS011;74874;48.072;11.688;2024-01-07T00:10:58;39.95;;;15.73;;
84644;SDS011;74874;48.072;11.688;2024-01-07T00:13:23;49.75;;;17.48;;
84644;SDS011;74874;48.072;11.688;2024-01-07T00:15:49;39.97;;;15.98;;
84644;SDS011;74874;48.072;11.688;2024-01-07T00:18:14;41.13;;;16.40;;
84644;SDS011;74874;48.072;11.688;2024-01-07T00:20:39;35.83;;;15.60;;
84644;SDS011;74874;48.072;11.688;2024-01-07T00:23:05;39.67;;;15.85;;
84644;SDS011;74874;48.072;11.688;2024-01-07T00:25:30;39.38;;;16.63;;
84644;SDS011;74874;48.072;11.688;2024-01-07T00:27:55;41.45;;;16.83;;
84644;SDS011;74874;48.072;11.688;2024-01-07T00:30:21;37.65;;;16.85;;
84644;SDS011;74874;48.072;11.688;2024-01-07T00:32:46;45.00;;;16.55;;
84644;SDS011;74874;48.072;11.688;2024-01-07T00:35:12;42.22;;;16.60;;
84644;SDS011;74874;48.072;11.688;2024-01-07T00:37:37;45.08;;;18.23;;
84644;SDS011;74874;48.072;11.688;2024-01-07T00:40:03;44.85;;;18.42;;
84644;SDS011;74874;48.072;11.688;2024-01-07T00:42:29;42.55;;;17.10;;
84644;SDS011;74874;48.072;11.688;2024-01-07T00:44:54;45.40;;;19.38;;
84644;SDS011;74874;48.072;11.688;2024-01-07T00:47:20;49.75;;;21.27;;
84644;SDS011;74874;48.072;11.688;2024-01-07T00:49:45;54.08;;;21.45;;
84644;SDS011;74874;48.072;11.688;2024-01-07T00:52:10;50.53;;;20.23;;
84644;SDS011;74874;48.072;11.688;2024-01-07T00:54:36;50.75;;;19.75;;
84644;SDS011;74874;48.072;11.688;2024-01-07T00:57:01;44.95;;;17.65;;
84644;SDS011;74874;48.072;11.688;2024-01-07T00:59:28;44.85;;;20.25;;
84644;SDS011;74874;48.072;11.688;2024-01-07T01:01:54;63.13;;;20.20;;
84644;SDS011;74874;48.072;11.688;2024-01-07T01:04:20;47.70;;;18.33;;
84644;SDS011;74874;48.072;11.688;2024-01-07T01:06:45;39.17;;;16.77;;
84644;SDS011;74874;48.072;11.688;2024-01-07T01:09:10;52.90;;;20.30;;
84644;SDS011;74874;48.072;11.688;2024-01-07T01:11:35;46.97;;;21.13;;
84644;SDS011;74874;48.072;11.688;2024-01-07T01:14:01;49.63;;;19.98;;
84644;SDS011;74874;48.072;11.688;2024-01-07T01:16:26;49.00;;;21.20;;
84644;SDS011;74874;48.072;11.688;2024-01-07T01:18:51;48.83;;;20.67;;
84644;SDS011;74874;48.072;11.688;2024-01-07T01:21:17;48.30;;;18.90;;
84644;SDS011;74874;48.072;11.688;2024-01-07T01:23:43;44.58;;;20.25;;
84644;SDS011;74874;48.072;11.688;2024-01-07T01:26:09;46.30;;;18.52;;
84644;SDS011;74874;48.072;11.688;2024-01-07T01:28:34;48.97;;;21.17;;
84644;SDS011;74874;48.072;11.688;2024-01-07T01:30:59;42.65;;;19.25;;
84644;SDS011;74874;48.072;11.688;2024-01-07T01:33:25;46.88;;;18.50;;
84644;SDS011;74874;48.072;11.688;2024-01-07T01:35:50;51.25;;;18.73;;
84644;SDS011;74874;48.072;11.688;2024-01-07T01:38:16;40.83;;;18.40;;
84644;SDS011;74874;48.072;11.688;2024-01-07T01:40:41;46.75;;;17.42;;
84644;SDS011;74874;48.072;11.688;2024-01-07T01:43:07;46.72;;;17.42;;
84644;SDS011;74874;48.072;11.688;2024-01-07T01:45:32;51.33;;;18.50;;
84644;SDS011;74874;48.072;11.688;2024-01-07T01:47:58;45.08;;;16.10;;
84644;SDS011;74874;48.072;11.688;2024-01-07T01:50:23;44.78;;;17.33;;
84644;SDS011;74874;48.072;11.688;2024-01-07T01:52:49;35.10;;;15.60;;
84644;SDS011;74874;48.072;11.688;2024-01-07T01:55:15;41.35;;;16.67;;
84644;SDS011;74874;48.072;11.688;2024-01-07T01:57:40;40.13;;;16.95;;
84644;SDS011;74874;48.072;11.688;2024-01-07T02:00:06;42.53;;;16.48;;
84644;SDS011;74874;48.072;11.688;2024-01-07T02:02:33;36.58;;;14.52;;
84644;SDS011;74874;48.072;11.688;2024-01-07T02:05:01;39.13;;;16.15;;
84644;SDS011;74874;48.072;11.688;2024-01-07T02:07:27;37.55;;;15.88;;
84644;SDS011;74874;48.072;11.688;2024-01-07T02:09:54;38.97;;;15.43;;
84644;SDS011;74874;48.072;11.688;2024-01-07T02:12:19;37.55;;;15.25;;
84644;SDS011;74874;48.072;11.688;2024-01-07T02:14:44;34.13;;;14.48;;
84644;SDS011;74874;48.072;11.688;2024-01-07T02:17:10;33.53;;;13.20;;
84644;SDS011;74874;48.072;11.688;2024-01-07T02:19:35;34.42;;;15.68;;
84644;SDS011;74874;48.072;11.688;2024-01-07T02:22:00;33.60;;;14.10;;
84644;SDS011;74874;48.072;11.688;2024-01-07T02:24:26;35.88;;;14.30;;
84644;SDS011;74874;48.072;11.688;2024-01-07T02:26:51;32.47;;;13.85;;
84644;SDS011;74874;48.072;11.688;2024-01-07T02:29:16;32.78;;;13.32;;
84644;SDS011;74874;48.072;11.688;2024-01-07T02:31:42;26.65;;;11.63;;
84644;SDS011;74874;48.072;11.688;2024-01-07T02:34:09;29.02;;;13.32;;
84644;SDS011;74874;48.072;11.688;2024-01-07T02:36:35;27.98;;;13.57;;
84644;SDS011;74874;48.072;11.688;2024-01-07T02:39:00;32.08;;;14.20;;
84644;SDS011;74874;48.072;11.688;2024-01-07T02:41:26;33.28;;;13.23;;
84644;SDS011;74874;48.072;11.688;2024-01-07T02:43:51;32.60;;;12.98;;
84644;SDS011;74874;48.072;11.688;2024-01-07T02:46:17;33.40;;;13.65;;
84644;SDS011;74874;48.072;11.688;2024-01-07T02:48:42;29.25;;;12.88;;
84644;SDS011;74874;48.072;11.688;2024-01-07T02:51:08;32.10;;;12.82;;
84644;SDS011;74874;48.072;11.688;2024-01-07T02:53:33;25.40;;;11.73;;
84644;SDS011;74874;48.072;11.688;2024-01-07T02:55:59;24.98;;;11.38;;
84644;SDS011;74874;48.072;11.688;2024-01-07T02:58:24;29.65;;;12.57;;
84644;SDS011;74874;48.072;11.688;2024-01-07T03:00:50;26.08;;;11.82;;
84644;SDS011;74874;48.072;11.688;2024-01-07T03:03:15;31.75;;;12.13;;
84644;SDS011;74874;48.072;11.688;2024-01-07T03:05:41;30.98;;;13.35;;
84644;SDS011;74874;48.072;11.688;2024-01-07T03:08:06;29.95;;;12.13;;
84644;SDS011;74874;48.072;11.688;2024-01-07T03:10:32;26.58;;;11.75;;
84644;SDS011;74874;48.072;11.688;2024-01-07T03:12:57;28.98;;;12.60;;
84644;SDS011;74874;48.072;11.688;2024-01-07T03:15:23;24.73;;;10.57;;
84644;SDS011;74874;48.072;11.688;2024-01-07T03:17:48;30.25;;;12.38;;
84644;SDS011;74874;48.072;11.688;2024-01-07T03:20:13;27.58;;;11.70;;
84644;SDS011;74874;48.072;11.688;2024-01-07T03:22:39;23.10;;;10.60;;
84644;SDS011;74874;48.072;11.688;2024-01-07T03:25:04;25.35;;;11.38;;
84644;SDS011;74874;48.072;11.688;2024-01-07T03:27:30;28.38;;;11.90;;
84644;SDS011;74874;48.072;11.688;2024-01-07T03:29:55;28.88;;;11.77;;
84644;SDS011;74874;48.072;11.688;2024-01-07T03:32:21;27.17;;;11.23;;
84644;SDS011;74874;48.072;11.688;2024-01-07T03:34:46;26.70;;;11.85;;
84644;SDS011;74874;48.072;11.688;2024-01-07T03:37:11;20.73;;;10.32;;
84644;SDS011;74874;48.072;11.688;2024-01-07T03:39:37;21.23;;;10.43;;
84644;SDS011;74874;48.072;11.688;2024-01-07T03:42:02;22.50;;;11.05;;
84644;SDS011;74874;48.072;11.688;2024-01-07T03:44:27;23.90;;;11.20;;
84644;SDS011;74874;48.072;11.688;2024-01-07T03:46:53;23.65;;;10.95;;
84644;SDS011;74874;48.072;11.688;2024-01-07T03:49:18;25.23;;;11.38;;
84644;SDS011;74874;48.072;11.688;2024-01-07T03:51:44;21.13;;;10.18;;
84644;SDS011;74874;48.072;11.688;2024-01-07T03:54:09;23.90;;;11.02;;
84644;SDS011;74874;48.072;11.688;2024-01-07T03:56:34;23.90;;;11.43;;
84644;SDS011;74874;48.072;11.688;2024-01-07T03:59:00;25.30;;;10.82;;
84644;SDS011;74874;48.072;11.688;2024-01-07T04:01:25;23.88;;;10.73;;
84644;SDS011;74874;48.072;11.688;2024-01-07T04:03:50;24.73;;;10.45;;
84644;SDS011;74874;48.072;11.688;2024-01-07T04:06:16;22.27;;;10.55;;
84644;SDS011;74874;48.072;11.688;2024-01-07T04:08:41;22.58;;;10.30;;
84644;SDS011;74874;48.072;11.688;2024-01-07T04:11:06;23.73;;;11.10;;
84644;SDS011;74874;48.072;11.688;2024-01-07T04:13:32;24.08;;;10.40;;
84644;SDS011;74874;48.072;11.688;2024-01-07T04:15:57;26.02;;;11.00;;
84644;SDS011;74874;48.072;11.688;2024-01-07T04:18:23;24.50;;;10.68;;
84644;SDS011;74874;48.072;11.688;2024-01-07T04:20:48;25.35;;;11.20;;
84644;SDS011;74874;48.072;11.688;2024-01-07T04:23:13;23.02;;;10.35;;
84644;SDS011;74874;48.072;11.688;2024-01-07T04:25:39;22.25;;;10.20;;
84644;SDS011;74874;48.072;11.688;2024-01-07T04:28:05;27.90;;;11.02;;
84644;SDS011;74874;48.072;11.688;2024-01-07T04:30:31;21.70;;;9.80;;
84644;SDS011;74874;48.072;11.688;2024-01-07T04:32:56;22.00;;;10.30;;
84644;SDS011;74874;48.072;11.688;2024-01-07T04:35:22;20.50;;;9.70;;
84644;SDS011;74874;48.072;11.688;2024-01-07T04:37:47;22.15;;;10.50;;
84644;SDS011;74874;48.072;11.688;2024-01-07T04:40:13;21.58;;;10.80;;
84644;SDS011;74874;48.072;11.688;2024-01-07T04:42:38;21.70;;;9.93;;
84644;SDS011;74874;48.072;11.688;2024-01-07T04:45:04;22.88;;;10.48;;
84644;SDS011;74874;48.072;11.688;2024-01-07T04:47:30;19.77;;;10.00;;
84644;SDS011;74874;48.072;11.688;2024-01-07T04:49:57;20.98;;;9.57;;
84644;SDS011;74874;48.072;11.688;2024-01-07T04:52:22;22.48;;;10.57;;
84644;SDS011;74874;48.072;11.688;2024-01-07T04:54:50;20.17;;;9.98;;
84644;SDS011;74874;48.072;11.688;2024-01-07T04:57:16;21.95;;;11.20;;
84644;SDS011;74874;48.072;11.688;2024-01-07T04:59:41;23.05;;;10.23;;
84644;SDS011;74874;48.072;11.688;2024-01-07T05:02:06;21.73;;;10.38;;
84644;SDS011;74874;48.072;11.688;2024-01-07T05:04:32;19.55;;;9.90;;
84644;SDS011;74874;48.072;11.688;2024-01-07T05:06:57;21.58;;;10.43;;
84644;SDS011;74874;48.072;11.688;2024-01-07T05:09:23;20.63;;;9.73;;
84644;SDS011;74874;48.072;11.688;2024-01-07T05:11:48;16.13;;;8.65;;
84644;SDS011;74874;48.072;11.688;2024-01-07T05:14:13;20.08;;;10.43;;
84644;SDS011;74874;48.072;11.688;2024-01-07T05:16:38;18.58;;;10.25;;
84644;SDS011;74874;48.072;11.688;2024-01-07T05:19:04;21.00;;;10.50;;
84644;SDS011;74874;48.072;11.688;2024-01-07T05:21:29;21.17;;;10.57;;
84644;SDS011;74874;48.072;11.688;2024-01-07T05:23:55;17.95;;;9.57;;
84644;SDS011;74874;48.072;11.688;2024-01-07T05:26:21;21.63;;;10.95;;
84644;SDS011;74874;48.072;11.688;2024-01-07T05:28:46;19.77;;;10.02;;
84644;SDS011;74874;48.072;11.688;2024-01-07T05:31:15;20.85;;;10.43;;
84644;SDS011;74874;48.072;11.688;2024-01-07T05:33:41;20.20;;;10.05;;
84644;SDS011;74874;48.072;11.688;2024-01-07T05:36:07;19.25;;;9.25;;
84644;SDS011;74874;48.072;11.688;2024-01-07T05:38:32;18.60;;;9.27;;
84644;SDS011;74874;48.072;11.688;2024-01-07T05:40:57;21.58;;;10.23;;
84644;SDS011;74874;48.072;11.688;2024-01-07T05:43:23;23.30;;;9.77;;
84644;SDS011;74874;48.072;11.688;2024-01-07T05:45:48;18.92;;;8.88;;
84644;SDS011;74874;48.072;11.688;2024-01-07T05:48:13;17.20;;;9.63;;
84644;SDS011;74874;48.072;11.688;2024-01-07T05:50:39;16.02;;;8.80;;
84644;SDS011;74874;48.072;11.688;2024-01-07T05:53:04;19.52;;;9.02;;
84644;SDS011;74874;48.072;11.688;2024-01-07T05:55:29;17.45;;;8.57;;
84644;SDS011;74874;48.072;11.688;2024-01-07T05:57:55;21.40;;;9.07;;
84644;SDS011;74874;48.072;11.688;2024-01-07T06:00:20;17.20;;;8.68;;
84644;SDS011;74874;48.072;11.688;2024-01-07T06:02:45;18.65;;;9.15;;
84644;SDS011;74874;48.072;11.688;2024-01-07T06:05:11;19.45;;;9.30;;
84644;SDS011;74874;48.072;11.688;2024-01-07T06:07:36;20.55;;;8.85;;
84644;SDS011;74874;48.072;11.688;2024-01-07T06:10:01;19.55;;;9.13;;
84644;SDS011;74874;48.072;11.688;2024-01-07T06:12:27;19.30;;;9.02;;
84644;SDS011;74874;48.072;11.688;2024-01-07T06:14:52;19.65;;;8.73;;
84644;SDS011;74874;48.072;11.688;2024-01-07T06:17:18;19.83;;;9.75;;
84644;SDS011;74874;48.072;11.688;2024-01-07T06:19:43;25.00;;;9.75;;
84644;SDS011;74874;48.072;11.688;2024-01-07T06:22:08;19.08;;;8.55;;
84644;SDS011;74874;48.072;11.688;2024-01-07T06:24:34;18.02;;;9.00;;
84644;SDS011;74874;48.072;11.688;2024-01-07T06:26:59;18.77;;;8.15;;
84644;SDS011;74874;48.072;11.688;2024-01-07T06:29:24;19.95;;;8.65;;
84644;SDS011;74874;48.072;11.688;2024-01-07T06:31:50;17.33;;;8.50;;
84644;SDS011;74874;48.072;11.688;2024-01-07T06:34:15;19.73;;;9.52;;
84644;SDS011;74874;48.072;11.688;2024-01-07T06:36:41;18.95;;;9.63;;
84644;SDS011;74874;48.072;11.688;2024-01-07T06:39:07;18.67;;;9.18;;
84644;SDS011;74874;48.072;11.688;2024-01-07T06:41:33;19.83;;;9.65;;
84644;SDS011;74874;48.072;11.688;2024-01-07T06:43:58;22.15;;;9.75;;
84644;SDS011;74874;48.072;11.688;2024-01-07T06:46:23;22.48;;;9.75;;
84644;SDS011;74874;48.072;11.688;2024-01-07T06:48:49;19.48;;;9.63;;
84644;SDS011;74874;48.072;11.688;2024-01-07T06:51:14;22.63;;;10.77;;
84644;SDS011;74874;48.072;11.688;2024-01-07T06:53:40;18.95;;;9.38;;
84644;SDS011;74874;48.072;11.688;2024-01-07T06:56:05;25.48;;;10.27;;
84644;SDS011;74874;48.072;11.688;2024-01-07T06:58:31;22.92;;;10.30;;
84644;SDS011;74874;48.072;11.688;2024-01-07T07:00:57;18.98;;;9.68;;
84644;SDS011;74874;48.072;11.688;2024-01-07T07:03:22;24.00;;;10.95;;
84644;SDS011;74874;48.072;11.688;2024-01-07T07:05:48;19.33;;;9.27;;
84644;SDS011;74874;48.072;11.688;2024-01-07T07:08:13;26.58;;;10.48;;
84644;SDS011;74874;48.072;11.688;2024-01-07T07:10:38;22.00;;;10.82;;
84644;SDS011;74874;48.072;11.688;2024-01-07T07:13:04;24.15;;;11.00;;
84644;SDS011;74874;48.072;11.688;2024-01-07T07:15:29;22.55;;;10.20;;
84644;SDS011;74874;48.072;11.688;2024-01-07T07:17:55;20.33;;;9.80;;
84644;SDS011;74874;48.072;11.688;2024-01-07T07:20:21;23.27;;;10.52;;
84644;SDS011;74874;48.072;11.688;2024-01-07T07:22:46;23.38;;;11.00;;
84644;SDS011;74874;48.072;11.688;2024-01-07T07:25:11;20.13;;;10.45;;
84644;SDS011;74874;48.072;11.688;2024-01-07T07:27:37;21.02;;;11.20;;
84644;SDS011;74874;48.072;11.688;2024-01-07T07:30:03;26.00;;;11.35;;
84644;SDS011;74874;48.072;11.688;2024-01-07T07:32:29;25.52;;;11.43;;
84644;SDS011;74874;48.072;11.688;2024-01-07T07:34:55;23.85;;;11.77;;
84644;SDS011;74874;48.072;11.688;2024-01-07T07:37:20;29.15;;;13.05;;
84644;SDS011;74874;48.072;11.688;2024-01-07T07:39:45;24.45;;;11.68;;
84644;SDS011;74874;48.072;11.688;2024-01-07T07:42:11;25.33;;;11.35;;
84644;SDS011;74874;48.072;11.688;2024-01-07T07:44:36;27.45;;;11.45;;
84644;SDS011;74874;48.072;11.688;2024-01-07T07:47:04;24.35;;;11.98;;
84644;SDS011;74874;48.072;11.688;2024-01-07T07:49:29;26.92;;;12.60;;
84644;SDS011;74874;48.072;11.688;2024-01-07T07:51:55;23.20;;;11.98;;
84644;SDS011;74874;48.072;11.688;2024-01-07T07:54:20;24.73;;;11.45;;
84644;SDS011;74874;48.072;11.688;2024-01-07T07:56:46;24.77;;;12.25;;
84644;SDS011;74874;48.072;11.688;2024-01-07T07:59:11;27.38;;;12.00;;
84644;SDS011;74874;48.072;11.688;2024-01-07T08:01:36;23.13;;;11.75;;
84644;SDS011;74874;48.072;11.688;2024-01-07T08:04:02;24.23;;;11.65;;
84644;SDS011;74874;48.072;11.688;2024-01-07T08:06:30;24.77;;;11.85;;
84644;SDS011;74874;48.072;11.688;2024-01-07T08:08:55;32.03;;;12.57;;
84644;SDS011;74874;48.072;11.688;2024-01-07T08:11:20;46.60;;;14.52;;
84644;SDS011;74874;48.072;11.688;2024-01-07T08:13:46;28.52;;;11.57;;
84644;SDS011;74874;48.072;11.688;2024-01-07T08:16:11;24.75;;;10.02;;
84644;SDS011;74874;48.072;11.688;2024-01-07T08:18:36;27.35;;;11.25;;
84644;SDS011;74874;48.072;11.688;2024-01-07T08:21:02;33.60;;;14.15;;
84644;SDS011;74874;48.072;11.688;2024-01-07T08:23:27;28.88;;;11.88;;
84644;SDS011;74874;48.072;11.688;2024-01-07T08:25:52;24.98;;;12.35;;
84644;SDS011;74874;48.072;11.688;2024-01-07T08:28:18;28.02;;;12.32;;
84644;SDS011;74874;48.072;11.688;2024-01-07T08:30:45;24.13;;;10.85;;
84644;SDS011;74874;48.072;11.688;2024-01-07T08:33:11;26.38;;;11.98;;
84644;SDS011;74874;48.072;11.688;2024-01-07T08:35:36;26.05;;;11.68;;
84644;SDS011;74874;48.072;11.688;2024-01-07T08:38:01;23.05;;;11.30;;
84644;SDS011;74874;48.072;11.688;2024-01-07T08:40:27;25.80;;;11.75;;
84644;SDS011;74874;48.072;11.688;2024-01-07T08:42:52;28.90;;;11.95;;
84644;SDS011;74874;48.072;11.688;2024-01-07T08:45:17;26.52;;;11.35;;
84644;SDS011;74874;48.072;11.688;2024-01-07T08:47:43;25.00;;;10.95;;
84644;SDS011;74874;48.072;11.688;2024-01-07T08:50:09;23.95;;;12.07;;
84644;SDS011;74874;48.072;11.688;2024-01-07T08:52:34;27.17;;;13.38;;
84644;SDS011;74874;48.072;11.688;2024-01-07T08:55:00;20.75;;;9.93;;
84644;SDS011;74874;48.072;11.688;2024-01-07T08:57:27;22.98;;;10.48;;
84644;SDS011;74874;48.072;11.688;2024-01-07T08:59:52;24.83;;;11.43;;
84644;SDS011;74874;48.072;11.688;2024-01-07T09:02:17;23.65;;;10.07;;
84644;SDS011;74874;48.072;11.688;2024-01-07T09:04:43;22.80;;;10.48;;
84644;SDS011;74874;48.072;11.688;2024-01-07T09:07:08;23.20;;;9.95;;
84644;SDS011;74874;48.072;11.688;2024-01-07T09:09:34;23.33;;;12.27;;
84644;SDS011;74874;48.072;11.688;2024-01-07T09:11:59;23.88;;;11.90;;
84644;SDS011;74874;48.072;11.688;2024-01-07T09:14:25;25.20;;;11.60;;
84644;SDS011;74874;48.072;11.688;2024-01-07T09:16:50;24.13;;;11.80;;
84644;SDS011;74874;48.072;11.688;2024-01-07T09:19:16;28.17;;;12.20;;
84644;SDS011;74874;48.072;11.688;2024-01-07T09:21:42;26.45;;;10.60;;
84644;SDS011;74874;48.072;11.688;2024-01-07T09:24:08;26.65;;;12.48;;
84644;SDS011;74874;48.072;11.688;2024-01-07T09:26:34;29.10;;;12.40;;
84644;SDS011;74874;48.072;11.688;2024-01-07T09:28:59;31.15;;;12.73;;
84644;SDS011;74874;48.072;11.688;2024-01-07T09:31:24;29.98;;;12.52;;
84644;SDS011;74874;48.072;11.688;2024-01-07T09:33:50;27.23;;;11.70;;
84644;SDS011;74874;48.072;11.688;2024-01-07T09:36:15;24.02;;;11.43;;
84644;SDS011;74874;48.072;11.688;2024-01-07T09:38:41;24.95;;;11.82;;
84644;SDS011;74874;48.072;11.688;2024-01-07T09:41:07;27.20;;;11.95;;
84644;SDS011;74874;48.072;11.688;2024-01-07T09:43:32;25.95;;;12.10;;
84644;SDS011;74874;48.072;11.688;2024-01-07T09:45:58;33.85;;;13.30;;
84644;SDS011;74874;48.072;11.688;2024-01-07T09:48:24;23.52;;;11.50;;
84644;SDS011;74874;48.072;11.688;2024-01-07T09:50:49;29.42;;;13.55;;
84644;SDS011;74874;48.072;11.688;2024-01-07T09:53:16;26.27;;;12.30;;
84644;SDS011;74874;48.072;11.688;2024-01-07T09:56:01;27.25;;;12.25;;
84644;SDS011;74874;48.072;11.688;2024-01-07T09:58:33;27.25;;;12.75;;
84644;SDS011;74874;48.072;11.688;2024-01-07T10:00:59;27.38;;;12.18;;
84644;SDS011;74874;48.072;11.688;2024-01-07T10:03:24;28.23;;;12.43;;
84644;SDS011;74874;48.072;11.688;2024-01-07T10:05:50;31.77;;;14.15;;
84644;SDS011;74874;48.072;11.688;2024-01-07T10:08:15;26.05;;;12.18;;
84644;SDS011;74874;48.072;11.688;2024-01-07T10:10:40;27.88;;;12.85;;
84644;SDS011;74874;48.072;11.688;2024-01-07T10:13:06;28.13;;;11.88;;
84644;SDS011;74874;48.072;11.688;2024-01-07T10:15:33;25.08;;;12.75;;
84644;SDS011;74874;48.072;11.688;2024-01-07T10:18:05;29.27;;;12.85;;
84644;SDS011;74874;48.072;11.688;2024-01-07T10:20:31;28.88;;;12.30;;
84644;SDS011;74874;48.072;11.688;2024-01-07T10:22:58;26.88;;;13.13;;
84644;SDS011;74874;48.072;11.688;2024-01-07T10:25:26;27.38;;;12.85;;
84644;SDS011;74874;48.072;11.688;2024-01-07T10:27:51;26.35;;;12.10;;
84644;SDS011;74874;48.072;11.688;2024-01-07T10:30:17;25.25;;;11.77;;
84644;SDS011;74874;48.072;11.688;2024-01-07T10:32:42;23.40;;;11.93;;
84644;SDS011;74874;48.072;11.688;2024-01-07T10:35:08;28.88;;;12.40;;
84644;SDS011;74874;48.072;11.688;2024-01-07T10:37:39;27.05;;;11.90;;
84644;SDS011;74874;48.072;11.688;2024-01-07T10:40:04;31.45;;;13.30;;
84644;SDS011;74874;48.072;11.688;2024-01-07T10:42:32;29.48;;;13.43;;
84644;SDS011;74874;48.072;11.688;2024-01-07T10:45:01;43.38;;;17.52;;
84644;SDS011;74874;48.072;11.688;2024-01-07T10:47:29;27.65;;;12.07;;
84644;SDS011;74874;48.072;11.688;2024-01-07T10:49:56;25.80;;;13.02;;
84644;SDS011;74874;48.072;11.688;2024-01-07T10:52:22;32.08;;;15.63;;
84644;SDS011;74874;48.072;11.688;2024-01-07T10:54:48;23.38;;;10.88;;
84644;SDS011;74874;48.072;11.688;2024-01-07T11:00:00;36.00;;;19.83;;
84644;SDS011;74874;48.072;11.688;2024-01-07T11:02:31;20.15;;;10.68;;
84644;SDS011;74874;48.072;11.688;2024-01-07T11:10:08;29.88;;;15.75;;
84644;SDS011;74874;48.072;11.688;2024-01-07T11:12:37;83.65;;;38.65;;
84644;SDS011;74874;48.072;11.688;2024-01-07T11:15:03;43.42;;;19.77;;
84644;SDS011;74874;48.072;11.688;2024-01-07T11:19:58;19.77;;;10.13;;
84644;SDS011;74874;48.072;11.688;2024-01-07T11:22:25;23.13;;;10.45;;
84644;SDS011;74874;48.072;11.688;2024-01-07T11:25:02;20.90;;;10.40;;
84644;SDS011;74874;48.072;11.688;2024-01-07T11:27:31;19.08;;;9.82;;
84644;SDS011;74874;48.072;11.688;2024-01-07T11:30:07;18.85;;;10.27;;
84644;SDS011;74874;48.072;11.688;2024-01-07T11:32:35;20.58;;;11.18;;
84644;SDS011;74874;48.072;11.688;2024-01-07T11:35:01;18.50;;;10.48;;
84644;SDS011;74874;48.072;11.688;2024-01-07T11:37:27;19.40;;;10.45;;
84644;SDS011;74874;48.072;11.688;2024-01-07T11:39:56;22.65;;;12.70;;
84644;SDS011;74874;48.072;11.688;2024-01-07T11:42:25;21.45;;;12.10;;
84644;SDS011;74874;48.072;11.688;2024-01-07T11:44:52;25.38;;;12.88;;
84644;SDS011;74874;48.072;11.688;2024-01-07T11:47:21;21.10;;;10.82;;
84644;SDS011;74874;48.072;11.688;2024-01-07T11:49:47;22.90;;;12.02;;
84644;SDS011;74874;48.072;11.688;2024-01-07T11:52:14;24.90;;;12.65;;
84644;SDS011;74874;48.072;11.688;2024-01-07T11:54:39;22.35;;;11.27;;
84644;SDS011;74874;48.072;11.688;2024-01-07T11:57:05;22.55;;;11.70;;
84644;SDS011;74874;48.072;11.688;2024-01-07T11:59:31;21.80;;;12.45;;
84644;SDS011;74874;48.072;11.688;2024-01-07T12:01:57;21.05;;;11.70;;
84644;SDS011;74874;48.072;11.688;2024-01-07T12:04:23;21.98;;;12.00;;
84644;SDS011;74874;48.072;11.688;2024-01-07T12:06:49;19.02;;;10.93;;
84644;SDS011;74874;48.072;11.688;2024-01-07T12:09:15;20.60;;;11.75;;
84644;SDS011;74874;48.072;11.688;2024-01-07T12:11:40;20.83;;;11.10;;
84644;SDS011;74874;48.072;11.688;2024-01-07T12:14:08;19.52;;;11.65;;
84644;SDS011;74874;48.072;11.688;2024-01-07T12:16:35;20.73;;;11.55;;
84644;SDS011;74874;48.072;11.688;2024-01-07T12:19:00;19.77;;;11.25;;
84644;SDS011;74874;48.072;11.688;2024-01-07T12:21:25;21.73;;;11.05;;
84644;SDS011;74874;48.072;11.688;2024-01-07T12:23:53;21.75;;;12.40;;
84644;SDS011;74874;48.072;11.688;2024-01-07T12:26:19;20.17;;;11.52;;
84644;SDS011;74874;48.072;11.688;2024-01-07T12:28:45;20.63;;;11.38;;
84644;SDS011;74874;48.072;11.688;2024-01-07T12:31:17;19.70;;;11.88;;
84644;SDS011;74874;48.072;11.688;2024-01-07T12:33:42;21.90;;;11.45;;
84644;SDS011;74874;48.072;11.688;2024-01-07T12:36:07;20.67;;;11.68;;
84644;SDS011;74874;48.072;11.688;2024-01-07T12:38:33;19.05;;;10.80;;
84644;SDS011;74874;48.072;11.688;2024-01-07T12:41:02;20.33;;;11.35;;
84644;SDS011;74874;48.072;11.688;2024-01-07T12:43:27;22.73;;;11.25;;
84644;SDS011;74874;48.072;11.688;2024-01-07T12:45:52;18.27;;;10.77;;
84644;SDS011;74874;48.072;11.688;2024-01-07T12:48:19;21.95;;;11.85;;
84644;SDS011;74874;48.072;11.688;2024-01-07T12:50:45;20.33;;;11.15;;
84644;SDS011;74874;48.072;11.688;2024-01-07T12:53:10;21.77;;;11.68;;
84644;SDS011;74874;48.072;11.688;2024-01-07T12:55:35;19.77;;;11.50;;
84644;SDS011;74874;48.072;11.688;2024-01-07T12:58:01;16.08;;;9.52;;
84644;SDS011;74874;48.072;11.688;2024-01-07T13:00:27;16.08;;;9.18;;
84644;SDS011;74874;48.072;11.688;2024-01-07T13:02:53;15.13;;;9.18;;
84644;SDS011;74874;48.072;11.688;2024-01-07T13:05:22;16.65;;;8.57;;
84644;SDS011;74874;48.072;11.688;2024-01-07T13:07:47;15.65;;;9.48;;
84644;SDS011;74874;48.072;11.688;2024-01-07T13:10:12;17.25;;;9.65;;
84644;SDS011;74874;48.072;11.688;2024-01-07T13:12:38;17.83;;;9.10;;
84644;SDS011;74874;48.072;11.688;2024-01-07T13:15:04;17.98;;;10.48;;
84644;SDS011;74874;48.072;11.688;2024-01-07T13:17:29;18.90;;;10.40;;
84644;SDS011;74874;48.072;11.688;2024-01-07T13:19:58;20.00;;;10.30;;
84644;SDS011;74874;48.072;11.688;2024-01-07T13:22:23;18.60;;;10.35;;
84644;SDS011;74874;48.072;11.688;2024-01-07T13:24:49;18.13;;;10.23;;
84644;SDS011;74874;48.072;11.688;2024-01-07T13:27:15;17.83;;;10.98;;
84644;SDS011;74874;48.072;11.688;2024-01-07T13:29:42;20.08;;;10.82;;
84644;SDS011;74874;48.072;11.688;2024-01-07T13:32:10;21.13;;;11.75;;
84644;SDS011;74874;48.072;11.688;2024-01-07T13:34:36;17.80;;;10.02;;
84644;SDS011;74874;48.072;11.688;2024-01-07T13:37:01;19.15;;;11.65;;
84644;SDS011;74874;48.072;11.688;2024-01-07T13:39:26;21.33;;;11.32;;
84644;SDS011;74874;48.072;11.688;2024-01-07T13:41:52;22.23;;;11.82;;
84644;SDS011;74874;48.072;11.688;2024-01-07T13:44:19;18.33;;;10.68;;
84644;SDS011;74874;48.072;11.688;2024-01-07T13:46:44;18.65;;;10.43;;
84644;SDS011;74874;48.072;11.688;2024-01-07T13:49:11;18.75;;;10.77;;
84644;SDS011;74874;48.072;11.688;2024-01-07T13:51:36;17.50;;;10.02;;
84644;SDS011;74874;48.072;11.688;2024-01-07T13:54:02;19.83;;;11.40;;
84644;SDS011;74874;48.072;11.688;2024-01-07T13:56:28;20.25;;;10.20;;
84644;SDS011;74874;48.072;11.688;2024-01-07T13:58:54;18.25;;;9.88;;
84644;SDS011;74874;48.072;11.688;2024-01-07T14:01:19;16.45;;;9.85;;
84644;SDS011;74874;48.072;11.688;2024-01-07T14:03:44;16.88;;;9.35;;
84644;SDS011;74874;48.072;11.688;2024-01-07T14:06:10;21.25;;;10.73;;
84644;SDS011;74874;48.072;11.688;2024-01-07T14:08:36;17.77;;;10.95;;
84644;SDS011;74874;48.072;11.688;2024-01-07T14:11:01;18.15;;;10.50;;
84644;SDS011;74874;48.072;11.688;2024-01-07T14:13:28;18.40;;;10.75;;